Time;durP1;ratioP1;P1;durP2;ratioP2;P2;SDS_P1;SDS_P2;PMS_P1;PMS_P2;Temp;Humidity;BMP_temperature;BMP_pressure;BME280_temperature;BME280_humidity;BME280_pressure;Samples;Min_cycle;Max_cycle;Signal;HPM_P1;HPM_P2
2021/11/29 00:00:28;;;;;;;32.85;15.35;;;;;;;19.89;23.22;95893.53;5032124;28;20029;-79
2021/11/29 00:03:00;;;;;;;26.75;12.68;;;;;;;20.01;23.25;95889.09;5031162;28;20130;-79
2021/11/29 00:05:27;;;;;;;30.08;13.43;;;;;;;19.79;23.58;95885.63;5032711;28;20036;-79
2021/11/29 00:07:56;;;;;;;29.30;13.90;;;;;;;19.28;24.16;95885.94;5032348;28;20036;-79
2021/11/29 00:10:22;;;;;;;27.05;12.48;;;;;;;20.57;22.75;95892.34;5032401;28;20385;-79
2021/11/29 00:12:48;;;;;;;32.92;15.95;;;;;;;19.32;24.10;95885.81;5029521;28;20037;-79
2021/11/29 00:15:15;;;;;;;31.40;15.13;;;;;;;19.92;23.54;95900.97;5032304;28;20076;-79
2021/11/29 00:17:41;;;;;;;32.38;14.63;;;;;;;20.23;23.05;95912.09;5032721;28;20029;-79
2021/11/29 00:20:09;;;;;;;25.95;12.10;;;;;;;20.38;22.98;95909.47;5032132;28;20047;-79
2021/11/29 00:22:35;;;;;;;33.35;13.85;;;;;;;20.14;23.16;95905.69;5031970;28;20041;-79
2021/11/29 00:25:02;;;;;;;28.38;13.85;;;;;;;19.32;24.33;95905.28;5029725;28;20124;-79
2021/11/29 00:27:29;;;;;;;38.28;15.88;;;;;;;18.32;25.56;95915.53;5026966;28;20389;-79
2021/11/29 00:29:55;;;;;;;30.75;13.70;;;;;;;18.60;25.12;95900.72;5032120;28;20059;-79
2021/11/29 00:32:21;;;;;;;28.05;12.82;;;;;;;18.29;25.74;95901.78;5032496;28;20227;-79
2021/11/29 00:34:48;;;;;;;36.58;14.60;;;;;;;16.92;27.62;95890.91;5032195;28;20706;-79
2021/11/29 00:37:14;;;;;;;38.40;15.75;;;;;;;16.59;28.52;95903.34;5031917;28;20516;-79
2021/11/29 00:39:40;;;;;;;38.92;15.93;;;;;;;17.39;27.45;95904.22;5028474;28;20033;-79
2021/11/29 00:42:06;;;;;;;30.67;13.27;;;;;;;17.74;26.78;95914.25;5030178;28;20037;-79
2021/11/29 00:44:32;;;;;;;34.63;15.70;;;;;;;19.35;24.74;95920.31;5029825;28;20029;-79
2021/11/29 00:46:59;;;;;;;26.58;10.32;;;;;;;20.39;23.06;95930.56;5031658;28;20111;-79
2021/11/29 00:49:25;;;;;;;32.90;13.32;;;;;;;18.48;25.47;95928.56;5031470;28;20025;-79
2021/11/29 00:51:52;;;;;;;27.02;11.65;;;;;;;19.06;24.86;95938.03;5031689;28;20033;-79
2021/11/29 00:54:18;;;;;;;29.73;11.05;;;;;;;19.06;24.94;95937.25;5031552;28;20108;-79
2021/11/29 00:56:44;;;;;;;29.95;11.73;;;;;;;19.06;24.70;95940.03;5025572;28;20041;-79
2021/11/29 00:59:10;;;;;;;42.20;16.25;;;;;;;18.55;25.61;95948.53;5031119;28;20042;-79
2021/11/29 01:01:37;;;;;;;36.63;16.35;;;;;;;18.25;25.84;95929.66;5028256;28;20029;-79
2021/11/29 01:04:04;;;;;;;31.25;12.65;;;;;;;18.30;25.93;95931.09;5031056;28;20044;-79
2021/11/29 01:06:30;;;;;;;28.13;11.65;;;;;;;19.35;24.50;95923.09;5025232;28;20034;-79
2021/11/29 01:08:56;;;;;;;31.48;12.60;;;;;;;18.55;25.58;95917.22;5028202;28;20029;-79
2021/11/29 01:11:23;;;;;;;27.38;11.43;;;;;;;19.25;24.73;95927.81;5031039;28;20060;-79
2021/11/29 01:13:49;;;;;;;24.73;10.25;;;;;;;20.09;23.62;95921.00;5030498;28;20044;-79
2021/11/29 01:16:15;;;;;;;25.25;9.93;;;;;;;19.90;23.73;95917.38;5027587;28;20112;-79
2021/11/29 01:18:41;;;;;;;28.20;10.68;;;;;;;19.36;24.36;95925.44;5030243;28;20451;-79
2021/11/29 01:21:08;;;;;;;25.67;10.82;;;;;;;18.90;24.83;95927.09;5028990;28;20565;-79
2021/11/29 01:23:34;;;;;;;29.63;12.70;;;;;;;19.40;24.15;95920.50;5027105;28;20075;-79
2021/11/29 01:26:00;;;;;;;24.42;10.85;;;;;;;19.12;24.84;95929.88;5025938;28;20037;-79
2021/11/29 01:28:26;;;;;;;22.85;9.25;;;;;;;18.81;25.11;95924.22;5027415;28;20083;-79
2021/11/29 01:30:53;;;;;;;27.35;9.43;;;;;;;17.53;27.36;95926.00;5029744;28;20040;-79
2021/11/29 01:33:19;;;;;;;24.67;11.30;;;;;;;17.83;26.14;95915.16;5028040;28;20033;-79
2021/11/29 01:35:46;;;;;;;25.42;10.48;;;;;;;19.38;24.75;95928.53;5025569;28;20025;-79
2021/11/29 01:38:12;;;;;;;23.65;10.30;;;;;;;18.42;25.51;95930.31;5029653;28;20478;-79
2021/11/29 01:40:38;;;;;;;25.40;11.23;;;;;;;19.51;24.32;95942.38;5029929;28;20030;-79
2021/11/29 01:43:06;;;;;;;22.77;8.25;;;;;;;18.74;24.82;95949.47;5029845;28;20045;-79
2021/11/29 01:45:38;;;;;;;21.13;9.68;;;;;;;19.75;23.92;95937.84;5026365;28;20026;-79
2021/11/29 01:48:05;;;;;;;23.38;10.10;;;;;;;19.40;24.04;95947.53;5030321;28;20083;-79
2021/11/29 01:50:33;;;;;;;21.17;8.15;;;;;;;19.07;24.41;95945.13;5027622;28;20033;-79
2021/11/29 01:52:59;;;;;;;21.15;9.38;;;;;;;19.71;23.79;95954.72;5030448;28;20022;-79
2021/11/29 01:55:26;;;;;;;23.60;10.20;;;;;;;19.61;23.78;95950.31;5030075;28;20040;-79
2021/11/29 01:57:52;;;;;;;22.17;9.52;;;;;;;19.56;23.82;95944.56;5029141;28;20060;-79
2021/11/29 02:00:27;;;;;;;20.10;9.63;;;;;;;19.53;24.13;95949.06;5027348;28;20037;-79
2021/11/29 02:02:55;;;;;;;21.20;9.95;;;;;;;20.26;23.22;95947.38;5028682;28;20038;-79
2021/11/29 02:05:22;;;;;;;16.60;8.90;;;;;;;20.43;22.71;95959.03;5030635;28;20057;-79
2021/11/29 02:07:48;;;;;;;19.00;8.45;;;;;;;19.84;23.38;95955.38;5030262;28;20607;-79
2021/11/29 02:10:17;;;;;;;16.48;8.35;;;;;;;20.30;22.88;95950.03;5030884;28;20500;-79
2021/11/29 02:12:43;;;;;;;25.45;10.75;;;;;;;19.74;23.42;95948.22;5030010;28;20037;-79
2021/11/29 02:15:12;;;;;;;18.35;7.80;;;;;;;19.13;24.42;95939.78;5029111;28;20029;-79
2021/11/29 02:17:39;;;;;;;19.38;8.00;;;;;;;20.12;23.29;95938.81;5029998;28;20021;-79
2021/11/29 02:20:06;;;;;;;17.17;8.48;;;;;;;19.95;23.43;95944.59;5030411;28;20053;-79
2021/11/29 02:22:34;;;;;;;17.15;8.05;;;;;;;19.54;23.99;95941.44;5026674;28;20497;-79
2021/11/29 02:25:00;;;;;;;16.52;7.53;;;;;;;20.24;22.99;95947.06;5029400;28;20041;-79
2021/11/29 02:27:26;;;;;;;21.48;9.50;;;;;;;19.43;23.50;95939.09;5030062;28;20041;-79
2021/11/29 02:29:57;;;;;;;17.63;8.13;;;;;;;19.71;23.69;95945.56;5028107;28;20030;-79
2021/11/29 02:32:23;;;;;;;20.80;7.97;;;;;;;19.89;23.49;95943.66;5028230;28;20053;-79
2021/11/29 02:34:50;;;;;;;22.70;9.80;;;;;;;19.74;23.47;95942.66;5029579;28;20065;-79
2021/11/29 02:37:16;;;;;;;16.27;8.13;;;;;;;20.42;22.89;95943.56;5029746;28;20120;-79
2021/11/29 02:39:43;;;;;;;14.52;7.00;;;;;;;20.14;22.96;95951.03;5028721;28;20040;-79
2021/11/29 02:42:12;;;;;;;22.05;10.90;;;;;;;18.82;24.82;95959.13;5034094;28;20033;-79
2021/11/29 02:44:40;;;;;;;17.90;8.20;;;;;;;19.25;24.59;95958.41;5033170;28;20022;-79
2021/11/29 02:47:07;;;;;;;14.60;7.10;;;;;;;19.93;23.37;95952.63;5032822;28;20451;-79
2021/11/29 02:49:34;;;;;;;16.88;7.35;;;;;;;20.46;22.81;95964.50;5033307;28;20029;-78
2021/11/29 02:52:06;;;;;;;15.98;7.65;;;;;;;20.68;22.55;95958.78;5030809;28;20033;-79
2021/11/29 02:54:35;;;;;;;19.65;8.68;;;;;;;19.95;23.27;95957.78;5032177;28;20508;-79
2021/11/29 02:57:04;;;;;;;19.13;7.60;;;;;;;18.16;25.58;95956.56;5028308;28;20401;-79
2021/11/29 02:59:33;;;;;;;19.95;9.27;;;;;;;18.39;25.46;95950.66;5033478;28;20397;-79
2021/11/29 03:02:10;;;;;;;22.20;9.43;;;;;;;19.12;24.59;95949.34;5029951;28;20389;-78
2021/11/29 03:04:36;;;;;;;18.30;9.25;;;;;;;18.72;24.92;95949.16;5031619;28;20022;-79
2021/11/29 03:07:04;;;;;;;22.20;9.15;;;;;;;18.56;25.24;95958.44;5032004;28;20029;-78
2021/11/29 03:09:33;;;;;;;17.75;9.07;;;;;;;19.38;24.39;95955.56;5029677;28;20041;-79
2021/11/29 03:12:00;;;;;;;19.02;8.98;;;;;;;19.72;23.75;95959.03;5031464;28;20501;-79
2021/11/29 03:14:27;;;;;;;23.52;11.23;;;;;;;19.09;24.39;95953.03;5030198;28;20512;-79
2021/11/29 03:16:55;;;;;;;19.17;9.43;;;;;;;19.33;24.09;95954.91;5032685;28;20072;-78
2021/11/29 03:19:23;;;;;;;24.75;10.88;;;;;;;18.74;24.75;95971.72;5032523;28;20295;-79
2021/11/29 03:21:50;;;;;;;20.70;9.60;;;;;;;19.38;24.17;95969.50;5033663;28;20045;-78
2021/11/29 03:24:16;;;;;;;19.95;9.20;;;;;;;18.92;24.82;95971.13;5031971;28;20045;-79
2021/11/29 03:26:42;;;;;;;20.88;9.23;;;;;;;19.26;24.29;95969.06;5030517;28;20041;-79
2021/11/29 03:29:12;;;;;;;17.73;8.15;;;;;;;20.04;23.28;95965.38;5033480;28;20454;-78
2021/11/29 03:31:41;;;;;;;18.98;8.98;;;;;;;19.39;24.01;95966.28;5023432;28;20393;-79
2021/11/29 03:34:09;;;;;;;14.90;8.43;;;;;;;18.94;24.44;95963.09;5032855;28;20026;-79
2021/11/29 03:36:37;;;;;;;20.50;9.70;;;;;;;18.96;24.52;95978.09;5033416;28;20029;-79
2021/11/29 03:39:07;;;;;;;15.05;7.32;;;;;;;19.23;24.43;95972.75;5032107;28;20068;-78
2021/11/29 03:41:35;;;;;;;22.38;10.40;;;;;;;19.11;24.35;95968.03;5029772;28;20029;-79
2021/11/29 03:44:01;;;;;;;16.70;7.82;;;;;;;19.46;24.04;95962.44;5030859;28;20068;-79
2021/11/29 03:46:28;;;;;;;13.38;6.68;;;;;;;19.89;23.56;95959.59;5032536;28;20428;-79
2021/11/29 03:48:54;;;;;;;18.38;9.70;;;;;;;19.18;24.14;95953.09;5032938;28;20030;-79
2021/11/29 03:51:20;;;;;;;17.58;8.43;;;;;;;17.79;26.31;95956.13;5030521;28;20036;-79
2021/11/29 03:53:46;;;;;;;20.30;9.90;;;;;;;18.42;25.40;95947.75;5031458;28;20037;-78
2021/11/29 03:56:12;;;;;;;18.90;8.65;;;;;;;18.52;25.20;95949.44;5032373;28;20627;-79
2021/11/29 03:58:39;;;;;;;17.63;9.25;;;;;;;19.26;24.50;95944.03;5032653;28;20049;-79
2021/11/29 04:01:05;;;;;;;15.13;7.60;;;;;;;20.30;23.13;95948.03;5027317;28;20076;-78
2021/11/29 04:03:35;;;;;;;24.10;10.80;;;;;;;20.15;22.96;95954.59;5030085;28;20033;-79
2021/11/29 04:06:01;;;;;;;13.63;7.22;;;;;;;20.72;22.41;95955.88;5027791;28;20038;-78
2021/11/29 04:08:28;;;;;;;14.27;7.47;;;;;;;20.36;22.80;95962.13;5029794;28;20021;-78
2021/11/29 04:10:54;;;;;;;13.07;6.78;;;;;;;20.45;22.74;95962.94;5031474;28;20037;-78
2021/11/29 04:13:20;;;;;;;17.15;7.82;;;;;;;19.77;23.53;95960.44;5032075;28;20041;-79
2021/11/29 04:15:46;;;;;;;21.10;10.52;;;;;;;18.82;24.72;95966.69;5030555;28;20030;-79
2021/11/29 04:18:13;;;;;;;15.73;8.55;;;;;;;19.29;24.26;95970.19;5032335;28;20087;-79
2021/11/29 04:20:39;;;;;;;21.92;10.00;;;;;;;19.95;23.29;95952.97;5024132;28;20111;-79
2021/11/29 04:23:05;;;;;;;14.65;7.70;;;;;;;19.57;23.86;95952.47;5027553;28;20049;-79
2021/11/29 04:25:52;;;;;;;18.88;8.63;;;;;;;19.17;24.33;95954.31;5029953;28;20053;-78
2021/11/29 04:28:19;;;;;;;15.88;7.65;;;;;;;19.88;23.45;95960.84;5031255;28;20187;-78
2021/11/29 04:30:45;;;;;;;18.25;8.60;;;;;;;18.64;24.44;95956.19;5028133;28;20037;-78
2021/11/29 04:33:11;;;;;;;16.25;7.22;;;;;;;18.46;25.20;95959.56;5030966;28;20029;-79
2021/11/29 04:35:37;;;;;;;16.95;7.50;;;;;;;19.20;24.37;95975.69;5031387;28;20029;-79
2021/11/29 04:38:06;;;;;;;13.05;6.93;;;;;;;19.48;23.92;95977.47;5029754;28;20033;-78
2021/11/29 04:40:34;;;;;;;15.90;7.28;;;;;;;19.64;23.74;95980.03;5028846;28;20037;-79
2021/11/29 04:43:00;;;;;;;16.95;8.23;;;;;;;19.45;23.98;95985.94;5030663;28;20035;-79
2021/11/29 04:45:27;;;;;;;14.00;7.30;;;;;;;20.81;22.43;95984.53;5030839;28;20021;-78
2021/11/29 04:47:53;;;;;;;12.93;6.10;;;;;;;19.77;23.18;95994.63;5032046;28;20025;-78
2021/11/29 04:50:19;;;;;;;11.73;5.85;;;;;;;19.58;23.89;95992.22;5031595;28;20041;-79
2021/11/29 04:52:45;;;;;;;17.63;9.23;;;;;;;18.87;24.56;95989.16;5030781;28;20025;-79
2021/11/29 04:55:12;;;;;;;15.80;7.85;;;;;;;18.75;25.07;95995.53;5030629;28;20033;-79
2021/11/29 04:57:40;;;;;;;16.33;8.70;;;;;;;18.78;24.83;95996.63;5028869;28;20159;-78
2021/11/29 05:00:09;;;;;;;14.35;7.18;;;;;;;19.65;23.54;95987.13;5030154;28;20663;-78
2021/11/29 05:02:35;;;;;;;12.90;6.85;;;;;;;18.45;25.19;95980.25;5026596;28;20033;-79
2021/11/29 05:05:02;;;;;;;13.85;8.05;;;;;;;18.85;24.76;95991.59;5026950;28;21018;-78
2021/11/29 05:07:28;;;;;;;18.00;9.00;;;;;;;19.47;23.74;95983.47;5031303;28;20030;-79
2021/11/29 05:09:54;;;;;;;13.57;7.50;;;;;;;18.91;24.30;95984.25;5026615;28;20120;-79
2021/11/29 05:12:21;;;;;;;12.98;7.63;;;;;;;19.50;23.78;95975.00;5027099;28;20049;-78
2021/11/29 05:14:47;;;;;;;13.88;7.70;;;;;;;19.15;23.90;95965.13;5026627;28;20045;-78
2021/11/29 05:17:15;;;;;;;14.65;6.63;;;;;;;20.09;23.16;95989.88;5029859;28;20022;-78
2021/11/29 05:19:42;;;;;;;12.68;7.55;;;;;;;19.57;23.84;95988.66;5031199;28;20085;-80
2021/11/29 05:22:08;;;;;;;10.90;6.20;;;;;;;19.83;23.58;95994.84;5027695;28;20049;-79
2021/11/29 05:24:35;;;;;;;11.88;7.38;;;;;;;20.16;22.87;95987.59;5028656;28;20029;-78
2021/11/29 05:27:02;;;;;;;14.55;7.30;;;;;;;18.70;24.55;95998.06;5024636;28;20184;-78
2021/11/29 05:29:28;;;;;;;11.95;7.40;;;;;;;20.10;22.94;95999.75;5024803;28;20030;-78
2021/11/29 05:31:54;;;;;;;12.75;7.80;;;;;;;19.98;22.87;95996.63;5026828;28;20037;-79
2021/11/29 05:34:20;;;;;;;14.30;8.27;;;;;;;19.83;23.14;95995.63;5027469;28;20030;-79
2021/11/29 05:36:47;;;;;;;11.27;6.43;;;;;;;18.82;24.42;95992.50;5028312;28;20033;-79
2021/11/29 05:39:14;;;;;;;11.80;6.78;;;;;;;19.42;23.63;95998.75;5024113;28;20120;-79
2021/11/29 05:41:42;;;;;;;8.55;4.82;;;;;;;20.83;21.96;95998.78;5024679;28;20120;-80
2021/11/29 05:44:08;;;;;;;12.23;6.53;;;;;;;20.88;21.90;96000.19;5028975;28;20025;-81
2021/11/29 05:46:35;;;;;;;7.85;5.38;;;;;;;19.09;23.86;96008.66;5028170;28;20033;-80
2021/11/29 05:49:02;;;;;;;13.18;8.43;;;;;;;19.47;23.47;96002.94;5031364;28;20034;-79
2021/11/29 05:51:28;;;;;;;12.25;6.95;;;;;;;19.03;24.33;96013.22;5031652;28;20090;-80
2021/11/29 05:53:55;;;;;;;10.45;6.03;;;;;;;19.95;23.31;96014.22;5031379;28;20485;-80
2021/11/29 05:56:22;;;;;;;12.05;6.57;;;;;;;18.81;24.21;96027.06;5031065;28;20029;-81
2021/11/29 05:58:48;;;;;;;10.52;6.57;;;;;;;19.19;24.21;96036.09;5030927;28;20025;-79
2021/11/29 06:01:15;;;;;;;9.57;6.00;;;;;;;19.52;23.77;96047.69;5030369;28;20069;-79
2021/11/29 06:03:41;;;;;;;9.38;5.55;;;;;;;18.88;24.33;96039.97;5030999;28;20132;-80
2021/11/29 06:06:08;;;;;;;8.82;5.63;;;;;;;20.16;23.12;96045.31;5031783;28;20034;-78
2021/11/29 06:08:34;;;;;;;9.40;6.35;;;;;;;19.81;23.23;96053.75;5031385;28;20076;-78
2021/11/29 06:11:00;;;;;;;10.55;5.93;;;;;;;20.34;22.58;96057.34;5031618;28;20033;-78
2021/11/29 06:13:26;;;;;;;10.88;6.95;;;;;;;19.79;23.27;96056.22;5031651;28;20034;-78
2021/11/29 06:15:52;;;;;;;7.30;5.00;;;;;;;18.62;24.73;96059.47;5034437;28;20464;-79
2021/11/29 06:18:18;;;;;;;11.52;6.35;;;;;;;19.51;23.82;96060.03;5035903;28;20040;-79
2021/11/29 06:20:45;;;;;;;9.52;6.38;;;;;;;19.13;24.24;96059.38;5035026;28;20039;-79
2021/11/29 06:23:11;;;;;;;12.13;6.68;;;;;;;19.41;24.07;96064.00;5035666;28;20116;-79
2021/11/29 06:25:38;;;;;;;10.25;6.38;;;;;;;19.74;23.59;96054.00;5035584;28;20029;-79
2021/11/29 06:28:08;;;;;;;13.50;7.40;;;;;;;18.74;24.67;96059.91;5035079;28;20120;-80
2021/11/29 06:30:35;;;;;;;12.82;7.85;;;;;;;18.63;24.78;96055.47;5035337;28;20095;-79
2021/11/29 06:33:02;;;;;;;13.55;7.95;;;;;;;18.23;25.44;96057.09;5033891;28;20033;-79
2021/11/29 06:35:28;;;;;;;12.82;7.47;;;;;;;18.32;25.19;96057.22;5034022;28;20397;-79
2021/11/29 06:38:04;;;;;;;13.45;8.43;;;;;;;18.74;24.74;96060.66;5036421;28;20045;-79
2021/11/29 06:40:31;;;;;;;16.38;6.90;;;;;;;18.10;25.57;96066.66;5036095;28;20087;-79
2021/11/29 06:42:57;;;;;;;12.88;7.00;;;;;;;18.60;25.09;96072.25;5036204;28;20134;-79
2021/11/29 06:45:24;;;;;;;11.10;6.60;;;;;;;19.26;24.16;96082.38;5034543;28;20069;-79
2021/11/29 06:47:50;;;;;;;14.27;7.55;;;;;;;18.77;24.62;96078.44;5034893;28;20399;-79
2021/11/29 06:50:18;;;;;;;12.57;6.88;;;;;;;19.24;24.28;96077.25;5035679;28;20355;-79
2021/11/29 06:52:44;;;;;;;12.65;6.90;;;;;;;18.83;24.54;96087.81;5035803;28;20034;-79
2021/11/29 06:55:19;;;;;;;11.10;6.35;;;;;;;19.00;24.70;96091.97;5036164;28;20041;-79
2021/11/29 06:57:46;;;;;;;17.45;8.18;;;;;;;19.69;23.48;96090.81;5036460;28;20477;-79
2021/11/29 07:00:20;;;;;;;14.20;7.45;;;;;;;18.82;24.44;96097.34;5034293;28;20033;-79
2021/11/29 07:02:47;;;;;;;19.05;8.27;;;;;;;18.84;24.34;96075.44;5030790;28;20384;-79
2021/11/29 07:05:14;;;;;;;15.23;8.27;;;;;;;19.26;24.06;96096.28;5033567;28;20501;-79
2021/11/29 07:07:42;;;;;;;18.30;9.13;;;;;;;19.18;24.13;96087.38;5035071;28;20033;-79
2021/11/29 07:10:08;;;;;;;14.40;7.10;;;;;;;19.17;24.31;96087.84;5035251;28;20045;-79
2021/11/29 07:12:36;;;;;;;14.73;7.05;;;;;;;18.40;25.48;96100.25;5034612;28;20034;-79
2021/11/29 07:15:03;;;;;;;15.15;8.98;;;;;;;19.27;24.37;96097.84;5035345;28;20045;-79
2021/11/29 07:17:30;;;;;;;19.08;10.38;;;;;;;19.69;23.48;96101.94;5035661;28;20033;-79
2021/11/29 07:19:57;;;;;;;14.13;7.65;;;;;;;20.13;23.04;96096.34;5035316;28;20091;-79
2021/11/29 07:22:24;;;;;;;17.83;8.07;;;;;;;19.31;23.74;96104.84;5032700;28;20037;-79
2021/11/29 07:24:52;;;;;;;14.50;7.75;;;;;;;19.53;23.79;96101.34;5034983;28;20116;-79
2021/11/29 07:27:25;;;;;;;18.67;9.15;;;;;;;18.33;24.80;96103.22;5034935;28;20072;-79
2021/11/29 07:29:52;;;;;;;14.70;7.70;;;;;;;17.67;26.29;96112.28;5035376;28;20030;-79
2021/11/29 07:32:20;;;;;;;20.52;10.70;;;;;;;17.68;26.14;96118.63;5021932;28;20034;-79
2021/11/29 07:34:47;;;;;;;24.42;11.73;;;;;;;17.42;26.71;96116.94;5032292;28;20103;-79
2021/11/29 07:37:15;;;;;;;16.77;8.73;;;;;;;18.49;25.36;96111.50;5034130;28;20091;-79
2021/11/29 07:39:43;;;;;;;18.30;9.27;;;;;;;18.63;25.03;96111.06;5032940;28;20440;-79
2021/11/29 07:42:10;;;;;;;20.80;9.98;;;;;;;18.42;25.27;96127.56;5034786;28;20141;-79
2021/11/29 07:44:36;;;;;;;25.02;11.88;;;;;;;19.19;24.38;96127.13;5035199;28;20040;-78
2021/11/29 07:47:02;;;;;;;12.95;7.05;;;;;;;18.65;25.19;96123.75;5034715;28;20099;-79
2021/11/29 07:49:29;;;;;;;19.10;9.35;;;;;;;18.92;24.50;96122.06;5035133;28;20029;-78
2021/11/29 07:51:55;;;;;;;16.90;8.50;;;;;;;19.39;24.28;96118.53;5033696;28;20036;-79
2021/11/29 07:54:21;;;;;;;17.10;8.73;;;;;;;19.06;24.31;96113.25;5034920;28;20567;-79
2021/11/29 07:56:48;;;;;;;17.67;8.65;;;;;;;17.91;25.85;96121.94;5034622;28;20053;-79
2021/11/29 07:59:14;;;;;;;15.05;7.53;;;;;;;17.60;26.50;96137.47;5034801;28;20033;-79
2021/11/29 08:01:40;;;;;;;18.55;9.55;;;;;;;16.57;27.82;96130.13;5017972;28;20057;-79
2021/11/29 08:04:06;;;;;;;18.73;10.20;;;;;;;17.12;27.18;96135.53;5015072;28;20051;-79
2021/11/29 08:06:32;;;;;;;17.92;8.45;;;;;;;17.35;27.01;96123.44;5027124;28;20413;-79
2021/11/29 08:08:59;;;;;;;19.58;9.98;;;;;;;18.31;25.64;96127.13;5034890;28;20033;-79
2021/11/29 08:11:25;;;;;;;14.63;7.28;;;;;;;17.79;26.00;96139.31;5034631;28;20056;-79
2021/11/29 08:13:51;;;;;;;19.00;9.90;;;;;;;18.05;26.06;96142.16;5034499;28;20075;-79
2021/11/29 08:16:18;;;;;;;15.95;8.73;;;;;;;18.57;25.12;96137.06;5031273;28;20037;-79
2021/11/29 08:18:44;;;;;;;17.80;9.82;;;;;;;18.47;25.49;96129.84;5034328;28;20026;-79
2021/11/29 08:21:10;;;;;;;18.45;9.10;;;;;;;18.48;25.47;96139.75;5033967;28;20045;-79
2021/11/29 08:23:36;;;;;;;22.70;11.20;;;;;;;18.45;25.43;96127.50;5017862;28;20504;-79
2021/11/29 08:26:03;;;;;;;17.95;8.38;;;;;;;18.02;25.96;96146.59;5021120;28;20033;-79
2021/11/29 08:28:30;;;;;;;17.25;8.73;;;;;;;18.48;25.26;96145.28;5032540;28;20409;-79
2021/11/29 08:30:57;;;;;;;19.88;9.15;;;;;;;18.57;25.24;96150.97;5033463;28;20032;-79
2021/11/29 08:33:23;;;;;;;18.75;9.60;;;;;;;16.60;28.21;96165.28;5033110;28;20079;-79
2021/11/29 08:35:50;;;;;;;19.77;10.57;;;;;;;17.43;27.11;96166.44;5034094;28;20030;-79
2021/11/29 08:38:17;;;;;;;17.67;9.35;;;;;;;18.86;25.07;96161.97;5034120;28;20056;-79
2021/11/29 08:40:45;;;;;;;18.25;9.13;;;;;;;18.10;25.87;96169.41;5025870;28;20456;-79
2021/11/29 08:43:16;;;;;;;20.98;9.15;;;;;;;17.58;26.35;96170.41;5030889;28;20033;-79
2021/11/29 08:45:43;;;;;;;17.27;9.88;;;;;;;17.87;25.93;96167.66;5033735;28;20041;-79
2021/11/29 08:48:10;;;;;;;16.52;9.18;;;;;;;18.13;25.71;96177.66;5033986;28;20508;-79
2021/11/29 08:50:39;;;;;;;15.27;7.97;;;;;;;18.20;25.50;96171.09;5033187;28;20029;-79
2021/11/29 08:53:08;;;;;;;15.73;7.45;;;;;;;18.18;25.77;96177.06;5034028;28;20033;-79
2021/11/29 08:55:35;;;;;;;17.85;8.90;;;;;;;18.01;25.78;96160.94;5014494;28;20394;-79
2021/11/29 08:58:04;;;;;;;12.20;6.78;;;;;;;18.74;25.35;96165.53;5022628;28;20442;-79
2021/11/29 09:00:30;;;;;;;17.77;9.50;;;;;;;18.69;24.73;96161.31;5015330;28;20117;-79
2021/11/29 09:02:58;;;;;;;15.02;7.25;;;;;;;18.88;24.69;96167.88;5023722;28;20036;-79
2021/11/29 09:05:25;;;;;;;13.27;8.65;;;;;;;17.38;26.59;96178.06;5033326;28;20041;-79
2021/11/29 09:07:51;;;;;;;12.52;7.57;;;;;;;17.53;26.55;96178.47;5032399;28;20434;-79
2021/11/29 09:10:18;;;;;;;17.63;10.18;;;;;;;18.09;25.80;96181.72;5033511;28;20037;-79
2021/11/29 09:12:44;;;;;;;16.58;9.00;;;;;;;17.94;26.08;96184.91;5033273;28;20049;-79
2021/11/29 09:15:14;;;;;;;15.02;9.27;;;;;;;18.36;25.26;96182.91;5033247;28;20037;-79
2021/11/29 09:17:40;;;;;;;18.17;9.88;;;;;;;17.88;25.97;96183.09;5033703;28;20036;-79
2021/11/29 09:20:09;;;;;;;12.52;7.07;;;;;;;17.87;26.21;96196.22;5033300;28;20451;-79
2021/11/29 09:22:36;;;;;;;14.60;8.55;;;;;;;17.83;26.11;96191.94;5032993;28;20046;-79
2021/11/29 09:25:04;;;;;;;14.07;8.15;;;;;;;17.91;26.03;96188.56;5032489;28;20045;-79
2021/11/29 09:27:31;;;;;;;17.38;9.88;;;;;;;18.96;24.86;96183.88;5033828;28;20549;-79
2021/11/29 09:29:57;;;;;;;15.95;10.32;;;;;;;17.56;26.59;96180.38;5033257;28;20061;-79
2021/11/29 09:32:24;;;;;;;12.60;7.60;;;;;;;17.92;25.96;96183.78;5033095;28;20038;-79
2021/11/29 09:34:50;;;;;;;12.98;7.65;;;;;;;18.57;25.13;96179.53;5032721;28;20049;-79
2021/11/29 09:37:20;;;;;;;12.63;8.13;;;;;;;19.31;23.91;96176.38;5033103;28;20037;-79
2021/11/29 09:39:47;;;;;;;12.88;7.70;;;;;;;18.12;25.47;96195.50;5033200;28;20513;-79
2021/11/29 09:42:14;;;;;;;15.70;9.40;;;;;;;17.69;25.90;96190.34;5032261;28;20053;-79
2021/11/29 09:44:40;;;;;;;13.93;7.53;;;;;;;18.14;25.80;96187.50;5033111;28;20112;-79
2021/11/29 09:47:07;;;;;;;16.95;9.25;;;;;;;18.47;25.03;96183.41;5033042;28;20486;-79
2021/11/29 09:49:42;;;;;;;14.77;8.45;;;;;;;18.21;25.72;96189.31;5032653;28;20037;-79
2021/11/29 09:52:08;;;;;;;16.63;10.00;;;;;;;17.43;26.21;96176.75;5031624;28;20401;-79
2021/11/29 09:54:34;;;;;;;15.40;8.45;;;;;;;17.41;26.90;96179.94;5032529;28;20167;-79
2021/11/29 09:57:00;;;;;;;15.65;8.02;;;;;;;18.11;25.61;96187.63;5031242;28;20041;-79
2021/11/29 09:59:28;;;;;;;12.73;7.50;;;;;;;18.84;24.55;96192.22;5031687;28;20021;-79
2021/11/29 10:01:55;;;;;;;15.98;8.52;;;;;;;18.62;24.83;96186.56;5024514;28;20034;-79
2021/11/29 10:04:22;;;;;;;10.60;6.60;;;;;;;17.38;26.31;96194.69;5031513;28;20385;-79
2021/11/29 10:07:01;;;;;;;12.80;6.57;;;;;;;18.14;25.87;96204.19;5033407;28;20040;-79
2021/11/29 10:09:34;;;;;;;14.27;8.00;;;;;;;17.41;26.37;96206.94;5032202;28;20030;-79
2021/11/29 10:12:20;;;;;;;13.52;7.07;;;;;;;16.51;27.45;96203.88;5032884;28;20030;-78
2021/11/29 10:15:11;;;;;;;13.75;8.15;;;;;;;17.27;26.68;96203.28;5028923;28;20053;-78
2021/11/29 10:17:37;;;;;;;;;;;;;;;16.39;27.88;96204.50;5032673;28;20033;-79
2021/11/29 10:20:05;;;;;;;17.65;10.13;;;;;;;16.15;28.29;96209.34;5032561;28;19921;-79
2021/11/29 10:22:33;;;;;;;13.60;8.95;;;;;;;17.38;26.63;96205.00;5032438;28;20048;-79
2021/11/29 10:25:13;;;;;;;13.90;8.02;;;;;;;17.92;25.96;96215.09;5029906;28;20069;-79
2021/11/29 10:27:41;;;;;;;18.58;9.40;;;;;;;18.09;25.42;96209.47;5029378;28;20060;-79
2021/11/29 10:30:08;;;;;;;13.88;8.65;;;;;;;17.65;26.16;96214.63;5033033;28;20041;-79
2021/11/29 10:32:40;;;;;;;13.55;7.70;;;;;;;18.17;25.58;96225.53;5032843;28;20389;-79
2021/11/29 10:35:11;;;;;;;14.07;7.78;;;;;;;16.83;27.09;96215.03;5032999;28;20084;-79
2021/11/29 10:37:39;;;;;;;12.52;7.55;;;;;;;16.13;28.37;96233.09;5031562;28;20537;-79
2021/11/29 10:40:12;;;;;;;18.38;9.82;;;;;;;15.52;29.14;96222.38;5030882;28;20084;-79
2021/11/29 10:42:39;;;;;;;14.68;8.75;;;;;;;16.73;27.63;96226.34;5023883;28;20112;-79
2021/11/29 10:45:08;;;;;;;14.40;9.93;;;;;;;16.63;27.46;96233.69;5032298;28;20087;-79
2021/11/29 10:47:36;;;;;;;16.55;9.38;;;;;;;17.28;26.43;96217.94;5031908;28;20548;-79
2021/11/29 10:50:05;;;;;;;16.42;9.00;;;;;;;15.90;28.49;96218.13;5032447;28;20471;-79
2021/11/29 10:52:33;;;;;;;17.23;10.68;;;;;;;17.16;26.62;96219.41;5032555;28;20025;-79
2021/11/29 10:55:00;;;;;;;17.65;9.55;;;;;;;16.97;26.74;96214.69;5047104;28;20041;-79
2021/11/29 10:57:28;;;;;;;15.43;7.78;;;;;;;17.38;26.55;96239.09;5034381;28;20528;-79
2021/11/29 10:59:55;;;;;;;19.25;10.15;;;;;;;17.18;26.30;96225.28;5032524;28;20030;-79
2021/11/29 11:02:24;;;;;;;20.20;10.82;;;;;;;18.04;25.26;96235.78;5034458;28;20036;-79
2021/11/29 11:05:12;;;;;;;14.68;8.35;;;;;;;17.08;26.82;96239.41;5035935;28;20155;-79
2021/11/29 11:07:39;;;;;;;17.60;9.15;;;;;;;17.83;25.67;96234.38;5035024;28;20033;-79
2021/11/29 11:10:11;;;;;;;16.63;9.48;;;;;;;18.00;25.45;96235.13;5036208;28;20029;-79
2021/11/29 11:12:38;;;;;;;17.73;9.75;;;;;;;17.68;25.87;96243.50;5034925;28;20172;-79
2021/11/29 11:15:09;;;;;;;18.10;9.05;;;;;;;18.72;24.51;96240.25;5035379;28;20037;-79
2021/11/29 11:17:35;;;;;;;18.27;9.70;;;;;;;17.91;25.38;96230.19;5035362;28;20029;-79
2021/11/29 11:20:13;;;;;;;16.02;9.30;;;;;;;19.54;23.30;96236.50;5035628;28;20040;-80
2021/11/29 11:22:46;;;;;;;21.50;9.43;;;;;;;17.71;25.29;96240.63;5022185;28;20050;-79
2021/11/29 11:25:15;;;;;;;16.42;8.93;;;;;;;18.05;25.22;96248.47;5035013;28;20033;-79